sensor_id;sensor_type;location;lat;lon;timestamp;pressure;altitude;pressure_sealevel;temperature;humidity
59272;BME280;45043;51.068;7.026;2023-05-17T00:00:22;101146.31;;;6.63;57.11
59272;BME280;45043;51.068;7.026;2023-05-17T00:03:22;101151.59;;;6.63;56.88
59272;BME280;45043;51.068;7.026;2023-05-17T00:06:23;101157.03;;;6.61;57.26
59272;BME280;45043;51.068;7.026;2023-05-17T00:09:23;101154.00;;;6.56;57.17
59272;BME280;45043;51.068;7.026;2023-05-17T00:12:24;101148.91;;;6.55;57.34
59272;BME280;45043;51.068;7.026;2023-05-17T00:15:24;101152.22;;;6.57;57.16
59272;BME280;45043;51.068;7.026;2023-05-17T00:18:25;101150.19;;;6.51;57.73
59272;BME280;45043;51.068;7.026;2023-05-17T00:21:25;101145.56;;;6.53;57.58
59272;BME280;45043;51.068;7.026;2023-05-17T00:24:26;101147.69;;;6.49;57.50
59272;BME280;45043;51.068;7.026;2023-05-17T00:27:26;101156.22;;;6.43;57.81
59272;BME280;45043;51.068;7.026;2023-05-17T00:30:27;101155.84;;;6.38;57.92
59272;BME280;45043;51.068;7.026;2023-05-17T00:33:27;101162.28;;;6.35;58.08
59272;BME280;45043;51.068;7.026;2023-05-17T00:36:28;101158.66;;;6.36;58.31
59272;BME280;45043;51.068;7.026;2023-05-17T00:39:28;101160.06;;;6.31;58.49
59272;BME280;45043;51.068;7.026;2023-05-17T00:42:29;101155.41;;;6.25;58.71
59272;BME280;45043;51.068;7.026;2023-05-17T00:45:30;101156.47;;;6.14;58.74
59272;BME280;45043;51.068;7.026;2023-05-17T00:48:30;101160.00;;;6.05;59.42
59272;BME280;45043;51.068;7.026;2023-05-17T00:51:32;101152.59;;;6.08;59.40
59272;BME280;45043;51.068;7.026;2023-05-17T00:54:32;101154.41;;;6.08;59.30
59272;BME280;45043;51.068;7.026;2023-05-17T00:57:34;101156.97;;;6.00;59.33
59272;BME280;45043;51.068;7.026;2023-05-17T01:00:34;101157.88;;;5.90;59.79
59272;BME280;45043;51.068;7.026;2023-05-17T01:03:35;101157.78;;;5.82;59.99
59272;BME280;45043;51.068;7.026;2023-05-17T01:06:36;101162.09;;;5.83;60.31
59272;BME280;45043;51.068;7.026;2023-05-17T01:09:37;101161.41;;;5.81;60.38
59272;BME280;45043;51.068;7.026;2023-05-17T01:13:01;101156.53;;;5.86;60.22
59272;BME280;45043;51.068;7.026;2023-05-17T01:22:43;101167.66;;;5.80;60.51
59272;BME280;45043;51.068;7.026;2023-05-17T01:28:56;101171.16;;;5.53;61.32
59272;BME280;45043;51.068;7.026;2023-05-17T01:31:58;101185.19;;;5.44;61.52
59272;BME280;45043;51.068;7.026;2023-05-17T01:34:59;101174.28;;;5.29;61.98
59272;BME280;45043;51.068;7.026;2023-05-17T01:37:59;101177.34;;;5.25;62.46
59272;BME280;45043;51.068;7.026;2023-05-17T01:44:32;101183.59;;;5.14;62.79
59272;BME280;45043;51.068;7.026;2023-05-17T01:50:51;101198.38;;;4.87;63.43
59272;BME280;45043;51.068;7.026;2023-05-17T01:53:56;101199.47;;;4.85;63.83
59272;BME280;45043;51.068;7.026;2023-05-17T01:57:04;101204.88;;;4.83;63.87
59272;BME280;45043;51.068;7.026;2023-05-17T02:00:06;101203.06;;;4.84;63.79
59272;BME280;45043;51.068;7.026;2023-05-17T02:03:19;101203.91;;;4.94;63.90
59272;BME280;45043;51.068;7.026;2023-05-17T02:06:23;101195.56;;;4.99;63.81
59272;BME280;45043;51.068;7.026;2023-05-17T02:09:24;101197.94;;;5.02;63.46
59272;BME280;45043;51.068;7.026;2023-05-17T02:12:25;101202.88;;;5.05;63.24
59272;BME280;45043;51.068;7.026;2023-05-17T02:15:25;101206.47;;;5.13;63.49
59272;BME280;45043;51.068;7.026;2023-05-17T02:18:26;101206.75;;;5.20;63.07
59272;BME280;45043;51.068;7.026;2023-05-17T02:21:27;101208.94;;;5.25;62.87
59272;BME280;45043;51.068;7.026;2023-05-17T02:24:27;101204.38;;;5.27;62.35
59272;BME280;45043;51.068;7.026;2023-05-17T02:27:27;101212.81;;;5.30;62.39
59272;BME280;45043;51.068;7.026;2023-05-17T02:30:28;101210.88;;;5.32;62.36
59272;BME280;45043;51.068;7.026;2023-05-17T02:33:30;101220.44;;;5.33;62.04
59272;BME280;45043;51.068;7.026;2023-05-17T02:36:30;101217.81;;;5.33;61.86
59272;BME280;45043;51.068;7.026;2023-05-17T02:39:32;101221.44;;;5.32;61.67
59272;BME280;45043;51.068;7.026;2023-05-17T02:42:33;101212.81;;;5.30;61.64
59272;BME280;45043;51.068;7.026;2023-05-17T02:45:33;101208.53;;;5.29;61.51
59272;BME280;45043;51.068;7.026;2023-05-17T02:48:34;101216.72;;;5.26;61.44
59272;BME280;45043;51.068;7.026;2023-05-17T02:51:35;101219.22;;;5.28;61.39
59272;BME280;45043;51.068;7.026;2023-05-17T02:54:35;101213.53;;;5.32;61.31
59272;BME280;45043;51.068;7.026;2023-05-17T02:57:36;101210.88;;;5.32;61.33
59272;BME280;45043;51.068;7.026;2023-05-17T03:00:37;101207.16;;;5.35;61.46
59272;BME280;45043;51.068;7.026;2023-05-17T03:03:37;101208.41;;;5.31;61.14
59272;BME280;45043;51.068;7.026;2023-05-17T03:06:38;101214.50;;;5.31;61.15
59272;BME280;45043;51.068;7.026;2023-05-17T03:09:39;101213.69;;;5.31;60.85
59272;BME280;45043;51.068;7.026;2023-05-17T03:12:41;101216.44;;;5.29;61.01
59272;BME280;45043;51.068;7.026;2023-05-17T03:15:42;101216.72;;;5.26;60.86
59272;BME280;45043;51.068;7.026;2023-05-17T03:18:42;101207.88;;;5.27;61.18
59272;BME280;45043;51.068;7.026;2023-05-17T03:21:43;101216.03;;;5.24;61.26
59272;BME280;45043;51.068;7.026;2023-05-17T03:24:44;101221.56;;;5.21;61.34
59272;BME280;45043;51.068;7.026;2023-05-17T03:27:45;101229.59;;;5.19;61.76
59272;BME280;45043;51.068;7.026;2023-05-17T03:30:47;101241.13;;;5.18;61.84
59272;BME280;45043;51.068;7.026;2023-05-17T03:33:48;101237.94;;;5.15;62.06
59272;BME280;45043;51.068;7.026;2023-05-17T03:36:49;101247.53;;;5.16;62.14
59272;BME280;45043;51.068;7.026;2023-05-17T03:39:50;101244.19;;;5.14;62.20
59272;BME280;45043;51.068;7.026;2023-05-17T03:42:50;101258.06;;;5.16;62.13
59272;BME280;45043;51.068;7.026;2023-05-17T03:45:52;101259.00;;;5.15;61.98
59272;BME280;45043;51.068;7.026;2023-05-17T03:48:52;101254.56;;;5.15;62.11
59272;BME280;45043;51.068;7.026;2023-05-17T03:51:53;101261.78;;;5.13;61.91
59272;BME280;45043;51.068;7.026;2023-05-17T03:54:53;101258.19;;;5.14;62.36
59272;BME280;45043;51.068;7.026;2023-05-17T03:57:54;101258.88;;;5.16;62.33
59272;BME280;45043;51.068;7.026;2023-05-17T04:00:54;101257.19;;;5.15;62.49
59272;BME280;45043;51.068;7.026;2023-05-17T04:03:55;101259.00;;;5.15;62.81
59272;BME280;45043;51.068;7.026;2023-05-17T04:06:56;101263.00;;;5.19;62.62
59272;BME280;45043;51.068;7.026;2023-05-17T04:09:57;101263.19;;;5.27;62.44
59272;BME280;45043;51.068;7.026;2023-05-17T04:13:03;101258.59;;;5.29;62.34
59272;BME280;45043;51.068;7.026;2023-05-17T04:16:03;101270.78;;;5.40;62.01
59272;BME280;45043;51.068;7.026;2023-05-17T04:19:05;101277.56;;;5.43;62.03
59272;BME280;45043;51.068;7.026;2023-05-17T04:22:05;101282.56;;;5.46;61.83
59272;BME280;45043;51.068;7.026;2023-05-17T04:25:06;101283.38;;;5.46;61.69
59272;BME280;45043;51.068;7.026;2023-05-17T04:28:09;101296.41;;;5.48;61.90
59272;BME280;45043;51.068;7.026;2023-05-17T04:31:09;101281.97;;;5.52;61.86
59272;BME280;45043;51.068;7.026;2023-05-17T04:34:11;101290.69;;;5.52;62.01
59272;BME280;45043;51.068;7.026;2023-05-17T04:37:13;101274.06;;;5.52;62.04
59272;BME280;45043;51.068;7.026;2023-05-17T04:40:16;101278.91;;;5.56;62.39
59272;BME280;45043;51.068;7.026;2023-05-17T04:43:16;101282.06;;;5.70;62.69
59272;BME280;45043;51.068;7.026;2023-05-17T04:46:17;101280.63;;;5.75;62.40
59272;BME280;45043;51.068;7.026;2023-05-17T04:49:17;101286.75;;;5.76;62.44
59272;BME280;45043;51.068;7.026;2023-05-17T04:52:18;101284.06;;;5.85;62.30
59272;BME280;45043;51.068;7.026;2023-05-17T04:55:20;101291.97;;;5.85;62.38
59272;BME280;45043;51.068;7.026;2023-05-17T04:58:21;101294.59;;;5.85;62.38
59272;BME280;45043;51.068;7.026;2023-05-17T05:01:28;101304.19;;;5.86;62.40
59272;BME280;45043;51.068;7.026;2023-05-17T05:04:32;101300.69;;;5.96;62.60
59272;BME280;45043;51.068;7.026;2023-05-17T05:07:33;101302.44;;;6.05;62.25
59272;BME280;45043;51.068;7.026;2023-05-17T05:10:34;101307.81;;;6.13;62.21
59272;BME280;45043;51.068;7.026;2023-05-17T05:13:34;101312.13;;;6.14;62.01
59272;BME280;45043;51.068;7.026;2023-05-17T05:16:39;101310.19;;;6.16;62.51
59272;BME280;45043;51.068;7.026;2023-05-17T05:19:39;101325.41;;;6.22;62.49
59272;BME280;45043;51.068;7.026;2023-05-17T05:22:41;101334.44;;;6.20;62.72
59272;BME280;45043;51.068;7.026;2023-05-17T05:25:42;101330.69;;;6.22;62.83
59272;BME280;45043;51.068;7.026;2023-05-17T05:28:44;101339.38;;;6.32;62.76
59272;BME280;45043;51.068;7.026;2023-05-17T05:31:45;101343.47;;;6.45;62.54
59272;BME280;45043;51.068;7.026;2023-05-17T05:34:48;101345.13;;;6.46;62.38
59272;BME280;45043;51.068;7.026;2023-05-17T05:37:48;101350.56;;;6.44;62.71
59272;BME280;45043;51.068;7.026;2023-05-17T05:40:48;101347.63;;;6.47;63.05
59272;BME280;45043;51.068;7.026;2023-05-17T05:43:49;101347.19;;;6.52;62.95
59272;BME280;45043;51.068;7.026;2023-05-17T05:46:50;101351.88;;;6.58;62.86
59272;BME280;45043;51.068;7.026;2023-05-17T05:49:50;101355.19;;;6.60;62.78
59272;BME280;45043;51.068;7.026;2023-05-17T05:52:51;101362.75;;;6.73;62.55
59272;BME280;45043;51.068;7.026;2023-05-17T05:55:51;101356.03;;;6.78;62.11
59272;BME280;45043;51.068;7.026;2023-05-17T05:58:54;101353.59;;;6.95;62.28
59272;BME280;45043;51.068;7.026;2023-05-17T06:01:55;101353.50;;;7.04;61.88
59272;BME280;45043;51.068;7.026;2023-05-17T06:04:58;101351.56;;;7.06;61.47
59272;BME280;45043;51.068;7.026;2023-05-17T06:07:58;101363.06;;;7.23;61.51
59272;BME280;45043;51.068;7.026;2023-05-17T06:10:59;101363.22;;;7.40;61.37
59272;BME280;45043;51.068;7.026;2023-05-17T06:13:59;101362.84;;;7.34;61.01
59272;BME280;45043;51.068;7.026;2023-05-17T06:16:59;101355.00;;;7.43;60.97
59272;BME280;45043;51.068;7.026;2023-05-17T06:20:00;101367.19;;;7.62;60.75
59272;BME280;45043;51.068;7.026;2023-05-17T06:23:00;101369.13;;;7.59;60.47
59272;BME280;45043;51.068;7.026;2023-05-17T06:26:01;101371.25;;;7.56;60.57
59272;BME280;45043;51.068;7.026;2023-05-17T06:29:01;101374.13;;;7.63;60.58
59272;BME280;45043;51.068;7.026;2023-05-17T06:32:03;101367.06;;;7.71;60.59
59272;BME280;45043;51.068;7.026;2023-05-17T06:35:03;101365.19;;;7.90;60.01
59272;BME280;45043;51.068;7.026;2023-05-17T06:38:04;101367.91;;;7.98;59.04
59272;BME280;45043;51.068;7.026;2023-05-17T06:41:04;101371.78;;;8.20;58.89
59272;BME280;45043;51.068;7.026;2023-05-17T06:44:05;101370.41;;;8.42;58.40
59272;BME280;45043;51.068;7.026;2023-05-17T06:47:05;101367.84;;;8.58;58.16
59272;BME280;45043;51.068;7.026;2023-05-17T06:50:06;101375.78;;;8.66;56.94
59272;BME280;45043;51.068;7.026;2023-05-17T06:53:07;101364.81;;;8.45;57.03
59272;BME280;45043;51.068;7.026;2023-05-17T06:56:08;101388.16;;;8.49;56.93
59272;BME280;45043;51.068;7.026;2023-05-17T06:59:08;101374.16;;;8.73;56.81
59272;BME280;45043;51.068;7.026;2023-05-17T07:02:08;101380.97;;;8.84;54.62
59272;BME280;45043;51.068;7.026;2023-05-17T07:05:09;101367.34;;;8.71;54.72
59272;BME280;45043;51.068;7.026;2023-05-17T07:08:09;101387.75;;;8.87;53.28
59272;BME280;45043;51.068;7.026;2023-05-17T07:11:10;101380.34;;;8.98;52.14
59272;BME280;45043;51.068;7.026;2023-05-17T07:14:10;101381.81;;;8.85;51.02
59272;BME280;45043;51.068;7.026;2023-05-17T07:17:10;101384.81;;;8.98;50.78
59272;BME280;45043;51.068;7.026;2023-05-17T07:20:11;101395.28;;;9.24;49.93
59272;BME280;45043;51.068;7.026;2023-05-17T07:23:12;101394.09;;;9.35;49.30
59272;BME280;45043;51.068;7.026;2023-05-17T07:26:12;101388.81;;;9.43;48.07
59272;BME280;45043;51.068;7.026;2023-05-17T07:29:13;101394.59;;;9.30;47.59
59272;BME280;45043;51.068;7.026;2023-05-17T07:32:13;101389.78;;;9.25;46.92
59272;BME280;45043;51.068;7.026;2023-05-17T07:35:15;101397.41;;;9.37;46.71
59272;BME280;45043;51.068;7.026;2023-05-17T07:38:15;101407.91;;;9.55;46.16
59272;BME280;45043;51.068;7.026;2023-05-17T07:41:16;101405.72;;;9.66;46.02
59272;BME280;45043;51.068;7.026;2023-05-17T07:44:20;101399.56;;;9.82;45.48
59272;BME280;45043;51.068;7.026;2023-05-17T07:47:21;101406.16;;;10.03;44.38
59272;BME280;45043;51.068;7.026;2023-05-17T07:50:21;101413.63;;;10.07;43.42
59272;BME280;45043;51.068;7.026;2023-05-17T07:53:22;101406.63;;;10.14;42.60
59272;BME280;45043;51.068;7.026;2023-05-17T07:56:23;101419.69;;;10.32;42.65
59272;BME280;45043;51.068;7.026;2023-05-17T07:59:23;101425.47;;;10.36;41.04
59272;BME280;45043;51.068;7.026;2023-05-17T08:02:24;101419.41;;;10.11;41.05
59272;BME280;45043;51.068;7.026;2023-05-17T08:05:24;101428.59;;;9.92;41.78
59272;BME280;45043;51.068;7.026;2023-05-17T08:08:25;101420.09;;;9.96;42.27
59272;BME280;45043;51.068;7.026;2023-05-17T08:11:25;101430.06;;;9.86;41.13
59272;BME280;45043;51.068;7.026;2023-05-17T08:14:28;101428.63;;;9.59;40.61
59272;BME280;45043;51.068;7.026;2023-05-17T08:17:32;101426.28;;;9.40;42.08
59272;BME280;45043;51.068;7.026;2023-05-17T08:20:32;101424.63;;;9.80;41.74
59272;BME280;45043;51.068;7.026;2023-05-17T08:23:33;101439.13;;;10.16;41.53
59272;BME280;45043;51.068;7.026;2023-05-17T08:26:33;101427.19;;;10.60;41.51
59272;BME280;45043;51.068;7.026;2023-05-17T08:29:34;101437.69;;;10.92;40.59
59272;BME280;45043;51.068;7.026;2023-05-17T08:32:35;101437.56;;;11.09;40.70
59272;BME280;45043;51.068;7.026;2023-05-17T08:35:36;101435.22;;;11.37;39.64
59272;BME280;45043;51.068;7.026;2023-05-17T08:38:36;101420.94;;;11.15;39.13
59272;BME280;45043;51.068;7.026;2023-05-17T08:41:37;101431.09;;;11.11;39.69
59272;BME280;45043;51.068;7.026;2023-05-17T08:44:38;101438.44;;;11.32;39.56
59272;BME280;45043;51.068;7.026;2023-05-17T08:47:40;101428.13;;;11.52;39.75
59272;BME280;45043;51.068;7.026;2023-05-17T08:50:43;101441.44;;;11.52;38.50
59272;BME280;45043;51.068;7.026;2023-05-17T08:53:46;101441.03;;;11.40;37.39
59272;BME280;45043;51.068;7.026;2023-05-17T08:56:47;101440.75;;;11.35;37.86
59272;BME280;45043;51.068;7.026;2023-05-17T08:59:51;101435.91;;;11.39;37.66
59272;BME280;45043;51.068;7.026;2023-05-17T09:02:52;101433.50;;;11.44;37.79
59272;BME280;45043;51.068;7.026;2023-05-17T09:05:52;101442.09;;;11.54;37.29
59272;BME280;45043;51.068;7.026;2023-05-17T09:08:53;101445.25;;;11.50;36.78
59272;BME280;45043;51.068;7.026;2023-05-17T09:11:56;101439.47;;;11.00;37.12
59272;BME280;45043;51.068;7.026;2023-05-17T09:15:11;101438.81;;;10.11;37.58
59272;BME280;45043;51.068;7.026;2023-05-17T09:18:12;101457.09;;;9.49;39.70
59272;BME280;45043;51.068;7.026;2023-05-17T09:21:13;101454.56;;;10.21;38.04
59272;BME280;45043;51.068;7.026;2023-05-17T09:24:14;101448.84;;;9.76;39.15
59272;BME280;45043;51.068;7.026;2023-05-17T09:27:17;101446.34;;;9.67;39.24
59272;BME280;45043;51.068;7.026;2023-05-17T09:30:18;101439.88;;;9.69;39.02
59272;BME280;45043;51.068;7.026;2023-05-17T09:33:19;101440.91;;;9.68;39.01
59272;BME280;45043;51.068;7.026;2023-05-17T09:36:22;101442.16;;;9.97;38.29
59272;BME280;45043;51.068;7.026;2023-05-17T09:39:24;101440.47;;;10.12;37.56
59272;BME280;45043;51.068;7.026;2023-05-17T09:42:25;101459.81;;;10.37;37.17
59272;BME280;45043;51.068;7.026;2023-05-17T09:45:25;101446.59;;;10.21;36.75
59272;BME280;45043;51.068;7.026;2023-05-17T09:48:26;101426.88;;;10.07;36.94
59272;BME280;45043;51.068;7.026;2023-05-17T09:51:36;101440.44;;;10.29;36.89
59272;BME280;45043;51.068;7.026;2023-05-17T09:54:36;101434.72;;;10.48;36.36
59272;BME280;45043;51.068;7.026;2023-05-17T09:57:40;101430.69;;;10.68;36.00
59272;BME280;45043;51.068;7.026;2023-05-17T10:00:42;101423.69;;;10.67;35.93
59272;BME280;45043;51.068;7.026;2023-05-17T10:03:43;101433.50;;;10.67;36.29
59272;BME280;45043;51.068;7.026;2023-05-17T10:06:43;101420.31;;;10.82;35.29
59272;BME280;45043;51.068;7.026;2023-05-17T10:09:48;101419.00;;;10.78;36.16
59272;BME280;45043;51.068;7.026;2023-05-17T10:12:51;101435.63;;;10.80;35.43
59272;BME280;45043;51.068;7.026;2023-05-17T10:15:53;101430.16;;;10.73;36.35
59272;BME280;45043;51.068;7.026;2023-05-17T10:18:54;101447.47;;;10.53;36.68
59272;BME280;45043;51.068;7.026;2023-05-17T10:21:56;101428.09;;;10.44;37.47
59272;BME280;45043;51.068;7.026;2023-05-17T10:24:58;101424.09;;;10.48;37.76
59272;BME280;45043;51.068;7.026;2023-05-17T10:28:00;101409.47;;;10.52;37.49
59272;BME280;45043;51.068;7.026;2023-05-17T10:31:02;101411.75;;;10.24;37.73
59272;BME280;45043;51.068;7.026;2023-05-17T10:34:04;101410.97;;;10.07;37.69
59272;BME280;45043;51.068;7.026;2023-05-17T10:37:06;101419.72;;;10.16;38.16
59272;BME280;45043;51.068;7.026;2023-05-17T10:40:08;101403.31;;;10.52;37.28
59272;BME280;45043;51.068;7.026;2023-05-17T10:43:12;101406.88;;;10.75;36.12
59272;BME280;45043;51.068;7.026;2023-05-17T10:46:17;101401.25;;;11.01;35.59
59272;BME280;45043;51.068;7.026;2023-05-17T10:49:32;101409.88;;;11.03;35.11
59272;BME280;45043;51.068;7.026;2023-05-17T10:52:37;101416.22;;;11.02;35.14
59272;BME280;45043;51.068;7.026;2023-05-17T10:55:40;101413.72;;;11.24;34.87
59272;BME280;45043;51.068;7.026;2023-05-17T10:58:43;101410.63;;;11.35;35.11
59272;BME280;45043;51.068;7.026;2023-05-17T11:01:57;101389.78;;;11.24;34.66
59272;BME280;45043;51.068;7.026;2023-05-17T11:04:57;101394.47;;;11.21;34.65
59272;BME280;45043;51.068;7.026;2023-05-17T11:08:13;101390.66;;;11.16;34.53
59272;BME280;45043;51.068;7.026;2023-05-17T11:11:18;101406.88;;;11.29;33.95
59272;BME280;45043;51.068;7.026;2023-05-17T11:14:18;101386.53;;;11.36;34.59
59272;BME280;45043;51.068;7.026;2023-05-17T11:17:22;101389.81;;;11.38;34.25
59272;BME280;45043;51.068;7.026;2023-05-17T11:23:28;101372.22;;;11.14;35.01
59272;BME280;45043;51.068;7.026;2023-05-17T11:26:36;101386.06;;;11.33;34.81
59272;BME280;45043;51.068;7.026;2023-05-17T11:29:38;101395.56;;;11.50;35.37
59272;BME280;45043;51.068;7.026;2023-05-17T11:32:46;101391.97;;;11.43;35.07
59272;BME280;45043;51.068;7.026;2023-05-17T11:35:52;101404.00;;;11.31;34.23
59272;BME280;45043;51.068;7.026;2023-05-17T11:39:11;101399.63;;;11.38;32.93
59272;BME280;45043;51.068;7.026;2023-05-17T11:42:23;101387.19;;;11.53;33.88
59272;BME280;45043;51.068;7.026;2023-05-17T11:45:24;101395.25;;;11.83;33.69
59272;BME280;45043;51.068;7.026;2023-05-17T11:48:25;101391.78;;;12.12;33.57
59272;BME280;45043;51.068;7.026;2023-05-17T11:51:26;101387.47;;;11.96;34.09
59272;BME280;45043;51.068;7.026;2023-05-17T11:54:27;101392.78;;;11.96;34.50
59272;BME280;45043;51.068;7.026;2023-05-17T11:57:30;101383.53;;;12.07;33.96
59272;BME280;45043;51.068;7.026;2023-05-17T12:00:31;101379.47;;;11.96;33.38
59272;BME280;45043;51.068;7.026;2023-05-17T12:03:32;101389.78;;;12.14;32.44
59272;BME280;45043;51.068;7.026;2023-05-17T12:06:32;101377.53;;;11.90;33.25
59272;BME280;45043;51.068;7.026;2023-05-17T12:09:35;101391.63;;;11.99;33.62
59272;BME280;45043;51.068;7.026;2023-05-17T12:12:36;101394.34;;;11.90;33.83
59272;BME280;45043;51.068;7.026;2023-05-17T12:15:37;101408.09;;;11.79;33.03
59272;BME280;45043;51.068;7.026;2023-05-17T12:18:39;101394.16;;;11.77;33.17
59272;BME280;45043;51.068;7.026;2023-05-17T12:21:40;101395.91;;;11.85;32.20
59272;BME280;45043;51.068;7.026;2023-05-17T12:24:41;101377.63;;;11.82;33.09
59272;BME280;45043;51.068;7.026;2023-05-17T12:27:42;101373.59;;;11.86;32.89
59272;BME280;45043;51.068;7.026;2023-05-17T12:30:43;101382.88;;;11.90;32.97
59272;BME280;45043;51.068;7.026;2023-05-17T12:33:44;101394.53;;;11.89;33.11
59272;BME280;45043;51.068;7.026;2023-05-17T12:36:47;101403.09;;;11.99;33.01
59272;BME280;45043;51.068;7.026;2023-05-17T12:39:48;101366.53;;;11.93;32.75
59272;BME280;45043;51.068;7.026;2023-05-17T12:42:49;101379.69;;;11.95;32.71
59272;BME280;45043;51.068;7.026;2023-05-17T12:45:51;101371.28;;;11.83;33.02
59272;BME280;45043;51.068;7.026;2023-05-17T12:48:53;101375.63;;;12.13;33.49
59272;BME280;45043;51.068;7.026;2023-05-17T12:51:53;101367.22;;;12.31;32.48
59272;BME280;45043;51.068;7.026;2023-05-17T12:54:57;101391.94;;;12.40;31.38
59272;BME280;45043;51.068;7.026;2023-05-17T12:58:01;101378.44;;;12.27;31.09
59272;BME280;45043;51.068;7.026;2023-05-17T13:01:03;101380.19;;;12.20;31.41
59272;BME280;45043;51.068;7.026;2023-05-17T13:04:06;101368.34;;;12.37;31.25
59272;BME280;45043;51.068;7.026;2023-05-17T13:07:06;101368.88;;;12.47;31.52
59272;BME280;45043;51.068;7.026;2023-05-17T13:10:24;101382.03;;;12.85;30.74
59272;BME280;45043;51.068;7.026;2023-05-17T13:13:34;101368.56;;;12.93;30.91
59272;BME280;45043;51.068;7.026;2023-05-17T13:16:38;101384.44;;;13.01;31.16
59272;BME280;45043;51.068;7.026;2023-05-17T13:19:39;101377.56;;;13.35;31.04
59272;BME280;45043;51.068;7.026;2023-05-17T13:22:44;101367.81;;;13.49;30.36
59272;BME280;45043;51.068;7.026;2023-05-17T13:25:45;101379.16;;;13.29;30.31
59272;BME280;45043;51.068;7.026;2023-05-17T13:28:45;101368.81;;;13.20;29.59
59272;BME280;45043;51.068;7.026;2023-05-17T13:31:46;101373.53;;;12.96;29.75
59272;BME280;45043;51.068;7.026;2023-05-17T13:34:47;101393.19;;;13.17;30.22
59272;BME280;45043;51.068;7.026;2023-05-17T13:37:47;101349.09;;;13.42;30.20
59272;BME280;45043;51.068;7.026;2023-05-17T13:40:48;101360.28;;;13.80;29.77
59272;BME280;45043;51.068;7.026;2023-05-17T13:43:48;101370.63;;;13.97;29.24
59272;BME280;45043;51.068;7.026;2023-05-17T13:46:49;101353.84;;;14.09;28.64
59272;BME280;45043;51.068;7.026;2023-05-17T13:49:49;101367.44;;;14.15;27.69
59272;BME280;45043;51.068;7.026;2023-05-17T13:52:50;101365.38;;;14.17;28.26
59272;BME280;45043;51.068;7.026;2023-05-17T13:55:50;101353.16;;;14.42;27.31
59272;BME280;45043;51.068;7.026;2023-05-17T13:58:51;101364.38;;;14.18;27.95
59272;BME280;45043;51.068;7.026;2023-05-17T14:01:52;101355.66;;;14.57;28.16
59272;BME280;45043;51.068;7.026;2023-05-17T14:04:52;101367.09;;;14.86;27.35
59272;BME280;45043;51.068;7.026;2023-05-17T14:07:53;101356.59;;;14.97;27.87
59272;BME280;45043;51.068;7.026;2023-05-17T14:10:54;101343.66;;;15.01;27.92
59272;BME280;45043;51.068;7.026;2023-05-17T14:13:55;101348.59;;;15.37;26.58
59272;BME280;45043;51.068;7.026;2023-05-17T14:16:56;101346.34;;;15.47;26.58
59272;BME280;45043;51.068;7.026;2023-05-17T14:19:57;101345.44;;;15.93;26.37
59272;BME280;45043;51.068;7.026;2023-05-17T14:29:46;101345.03;;;16.80;25.63
59272;BME280;45043;51.068;7.026;2023-05-17T14:32:47;101333.63;;;16.59;25.56
59272;BME280;45043;51.068;7.026;2023-05-17T14:35:47;101339.75;;;16.98;25.63
59272;BME280;45043;51.068;7.026;2023-05-17T14:38:48;101338.63;;;17.62;24.66
59272;BME280;45043;51.068;7.026;2023-05-17T14:41:48;101337.97;;;18.04;24.23
59272;BME280;45043;51.068;7.026;2023-05-17T14:44:48;101327.94;;;18.59;24.04
59272;BME280;45043;51.068;7.026;2023-05-17T14:47:49;101332.06;;;19.27;23.27
59272;BME280;45043;51.068;7.026;2023-05-17T14:50:49;101320.97;;;19.59;23.11
59272;BME280;45043;51.068;7.026;2023-05-17T14:53:52;101302.16;;;19.76;22.53
59272;BME280;45043;51.068;7.026;2023-05-17T14:56:53;101321.88;;;19.53;22.89
59272;BME280;45043;51.068;7.026;2023-05-17T14:59:53;101320.09;;;19.11;22.96
59272;BME280;45043;51.068;7.026;2023-05-17T15:02:54;101314.72;;;19.00;22.69
59272;BME280;45043;51.068;7.026;2023-05-17T15:05:55;101319.28;;;19.34;22.41
59272;BME280;45043;51.068;7.026;2023-05-17T15:08:55;101322.81;;;19.23;22.12
59272;BME280;45043;51.068;7.026;2023-05-17T15:11:56;101335.22;;;19.24;21.92
59272;BME280;45043;51.068;7.026;2023-05-17T15:14:57;101324.44;;;18.59;23.27
59272;BME280;45043;51.068;7.026;2023-05-17T15:17:57;101321.78;;;18.71;23.33
59272;BME280;45043;51.068;7.026;2023-05-17T15:21:01;101338.84;;;19.30;22.76
59272;BME280;45043;51.068;7.026;2023-05-17T15:24:01;101315.81;;;19.46;22.25
59272;BME280;45043;51.068;7.026;2023-05-17T15:27:02;101324.91;;;19.68;21.97
59272;BME280;45043;51.068;7.026;2023-05-17T15:30:02;101328.91;;;19.77;21.79
59272;BME280;45043;51.068;7.026;2023-05-17T15:33:03;101321.28;;;20.26;21.50
59272;BME280;45043;51.068;7.026;2023-05-17T15:36:06;101316.66;;;21.18;20.50
59272;BME280;45043;51.068;7.026;2023-05-17T15:39:07;101323.63;;;20.97;19.96
59272;BME280;45043;51.068;7.026;2023-05-17T15:42:07;101312.47;;;20.31;20.80
59272;BME280;45043;51.068;7.026;2023-05-17T15:45:08;101319.56;;;20.66;20.32
59272;BME280;45043;51.068;7.026;2023-05-17T15:48:09;101311.56;;;20.71;19.74
59272;BME280;45043;51.068;7.026;2023-05-17T15:51:10;101313.34;;;20.65;20.03
59272;BME280;45043;51.068;7.026;2023-05-17T15:54:11;101308.06;;;20.42;20.36
59272;BME280;45043;51.068;7.026;2023-05-17T15:57:11;101304.13;;;19.80;20.45
59272;BME280;45043;51.068;7.026;2023-05-17T16:00:12;101316.00;;;19.32;21.84
59272;BME280;45043;51.068;7.026;2023-05-17T16:03:13;101303.09;;;19.81;21.21
59272;BME280;45043;51.068;7.026;2023-05-17T16:06:14;101310.16;;;20.23;20.74
59272;BME280;45043;51.068;7.026;2023-05-17T16:09:15;101306.72;;;20.56;20.68
59272;BME280;45043;51.068;7.026;2023-05-17T16:12:15;101306.38;;;20.81;20.15
59272;BME280;45043;51.068;7.026;2023-05-17T16:15:16;101311.69;;;20.93;20.27
59272;BME280;45043;51.068;7.026;2023-05-17T16:18:17;101306.78;;;21.62;19.55
59272;BME280;45043;51.068;7.026;2023-05-17T16:21:17;101309.47;;;22.28;19.04